createdAt,value
2022-11-05T00:07:56.407Z,12.98
2022-11-05T00:10:55.512Z,12.97
2022-11-05T00:13:48.881Z,12.95
2022-11-05T00:19:38.373Z,12.91
2022-11-05T00:22:45.177Z,12.88
2022-11-05T00:25:39.258Z,12.86
2022-11-05T00:28:22.093Z,12.84
2022-11-05T00:32:10.009Z,12.81
2022-11-05T00:34:52.685Z,12.83
2022-11-05T00:37:29.354Z,12.87
2022-11-05T00:39:57.377Z,12.90
2022-11-05T00:42:44.525Z,12.93
2022-11-05T00:46:03.254Z,12.97
2022-11-05T00:49:08.950Z,13.01
2022-11-05T00:51:37.560Z,13.06
2022-11-05T00:54:26.037Z,13.10
2022-11-05T01:01:43.678Z,13.19
2022-11-05T01:04:38.048Z,13.21
2022-11-05T01:07:18.419Z,13.24
2022-11-05T01:10:17.257Z,13.27
2022-11-05T01:13:16.154Z,13.28
2022-11-05T01:20:20.330Z,13.28
2022-11-05T01:23:18.661Z,13.24
2022-11-05T01:26:10.442Z,13.20
2022-11-05T01:29:10.771Z,13.15
2022-11-05T01:33:53.618Z,13.10
2022-11-05T01:35:22.639Z,13.09
2022-11-05T01:39:14.555Z,13.03
2022-11-05T01:41:37.031Z,12.90
2022-11-05T01:44:25.513Z,12.75
2022-11-05T01:47:52.825Z,12.63
2022-11-05T01:52:27.898Z,12.50
2022-11-05T01:54:54.419Z,12.37
2022-11-05T01:57:45.327Z,12.30
2022-11-05T02:00:43.251Z,12.26
2022-11-05T02:08:45.643Z,12.18
2022-11-05T02:57:26.484Z,12.86
2022-11-05T03:00:58.654Z,12.91
2022-11-05T03:04:08.438Z,12.82
2022-11-05T03:18:50.106Z,12.65
2022-11-05T03:56:07.035Z,12.95
2022-11-05T03:58:53.387Z,12.91
2022-11-05T04:01:42.287Z,12.87
2022-11-05T04:04:11.002Z,12.85
2022-11-05T04:07:05.978Z,12.81
2022-11-05T04:10:01.068Z,12.70
2022-11-05T04:12:53.342Z,12.53
2022-11-05T04:15:40.856Z,12.33
2022-11-05T04:18:09.229Z,12.21
2022-11-05T04:20:56.132Z,12.12
2022-11-05T04:23:46.666Z,12.06
2022-11-05T04:26:14.642Z,12.00
2022-11-05T04:29:07.684Z,11.97
2022-11-05T04:31:40.724Z,11.95
2022-11-05T04:34:22.205Z,11.93
2022-11-05T04:36:59.983Z,11.93
2022-11-05T04:39:28.321Z,11.93
2022-11-05T04:42:00.532Z,11.95
2022-11-05T04:44:32.072Z,11.96
2022-11-05T04:47:00.164Z,11.97
2022-11-05T04:49:39.904Z,11.98
2022-11-05T04:52:29.306Z,11.99
2022-11-05T04:54:57.456Z,12.00
2022-11-05T04:57:27.942Z,12.02
2022-11-05T05:01:41.095Z,12.06
2022-11-05T05:04:26.754Z,12.08
2022-11-05T05:07:00.001Z,12.08
2022-11-05T05:09:41.149Z,12.10
2022-11-05T05:12:47.266Z,12.14
2022-11-05T05:15:51.638Z,12.17
2022-11-05T05:18:30.662Z,12.19
2022-11-05T05:21:50.237Z,12.19
2022-11-05T05:24:33.563Z,12.19
2022-11-05T05:27:01.999Z,12.20
2022-11-05T05:29:32.126Z,12.22
2022-11-05T05:32:11.987Z,12.21
2022-11-05T05:34:43.887Z,12.21
2022-11-05T05:37:16.716Z,12.19
2022-11-05T05:39:54.590Z,12.19
2022-11-05T05:42:40.203Z,12.18
2022-11-05T05:49:13.259Z,12.19
2022-11-05T05:52:05.557Z,12.20
2022-11-05T05:52:22.841Z,12.19
2022-11-05T05:54:38.289Z,12.22
2022-11-05T05:57:22.699Z,12.23
2022-11-05T06:00:09.096Z,12.24
2022-11-05T06:02:40.500Z,12.25
2022-11-05T06:05:34.319Z,12.23
2022-11-05T06:08:24.234Z,12.23
2022-11-05T06:10:57.467Z,12.25
2022-11-05T06:13:37.264Z,12.26
2022-11-05T06:16:08.799Z,12.25
2022-11-05T06:18:41.156Z,12.23
2022-11-05T06:21:17.572Z,12.21
2022-11-05T06:23:45.995Z,12.21
2022-11-05T06:26:16.833Z,12.23
2022-11-05T06:28:50.034Z,12.28
2022-11-05T06:31:19.412Z,12.26
2022-11-05T06:33:58.820Z,12.27
2022-11-05T06:36:35.793Z,12.32
2022-11-05T06:39:12.864Z,12.37
2022-11-05T06:42:12.115Z,12.41
2022-11-05T06:44:58.211Z,12.46
2022-11-05T06:47:33.104Z,12.51
2022-11-05T06:50:01.252Z,12.52
2022-11-05T06:52:31.384Z,12.52
2022-11-05T06:55:09.168Z,12.54
2022-11-05T06:57:38.850Z,12.57
2022-11-05T07:00:22.662Z,12.62
2022-11-05T07:03:07.335Z,12.69
2022-11-05T07:05:39.399Z,12.76
2022-11-05T07:09:17.874Z,12.84
2022-11-05T07:11:31.406Z,12.96
2022-11-05T07:14:06.795Z,13.05
2022-11-05T07:16:38.041Z,13.13
2022-11-05T07:19:10.030Z,13.19
2022-11-05T07:21:56.345Z,13.24
2022-11-05T07:24:24.637Z,13.25
2022-11-05T07:26:57.457Z,13.28
2022-11-05T07:29:34.047Z,13.31
2022-11-05T07:32:07.894Z,13.34
2022-11-05T07:34:41.755Z,13.39
2022-11-05T07:37:14.552Z,13.42
2022-11-05T07:39:45.704Z,13.45
2022-11-05T07:42:18.323Z,13.48
2022-11-05T07:44:52.854Z,13.52
2022-11-05T07:47:24.616Z,13.56
2022-11-05T07:49:54.318Z,13.59
2022-11-05T07:52:22.179Z,13.62
2022-11-05T07:54:52.134Z,13.63
2022-11-05T07:57:21.667Z,13.66
2022-11-05T07:59:49.686Z,13.68
2022-11-05T08:02:17.938Z,13.68
2022-11-05T08:04:46.455Z,13.65
2022-11-05T08:07:14.754Z,13.64
2022-11-05T08:09:46.123Z,13.64
2022-11-05T08:12:21.688Z,13.60
2022-11-05T08:18:32.297Z,13.59
2022-11-05T08:21:12.408Z,13.62
2022-11-05T08:23:43.392Z,13.66
2022-11-05T08:26:14.330Z,13.71
2022-11-05T08:28:42.741Z,13.76
2022-11-05T08:31:11.009Z,13.79
2022-11-05T08:33:39.144Z,13.82
2022-11-05T08:36:07.459Z,13.82
2022-11-05T08:38:40.402Z,13.84
2022-11-05T09:50:37.621Z,16.92
2022-11-05T09:53:23.428Z,16.86
2022-11-05T09:56:36.538Z,16.81
2022-11-05T09:59:41.620Z,16.71
2022-11-05T10:02:41.963Z,16.64
2022-11-05T10:05:18.288Z,16.60
2022-11-05T10:08:21.255Z,16.61
2022-11-05T10:15:23.347Z,16.77
2022-11-05T10:18:03.376Z,16.66
2022-11-05T10:18:59.916Z,16.86
2022-11-05T10:28:56.261Z,16.96
2022-11-05T10:29:24.859Z,17.03
2022-11-05T10:31:25.327Z,16.91
2022-11-05T11:02:45.951Z,17.47
2022-11-05T11:23:50.385Z,17.38
2022-11-05T11:38:23.556Z,17.34
2022-11-05T12:50:49.756Z,17.44
2022-11-05T13:16:10.834Z,16.97
2022-11-05T13:19:00.771Z,16.98
2022-11-05T13:22:57.002Z,16.99
2022-11-05T13:29:32.731Z,16.96
2022-11-05T13:56:39.541Z,16.75
2022-11-05T13:59:48.124Z,16.72
2022-11-05T14:07:23.399Z,16.49
2022-11-05T14:07:51.515Z,16.74
2022-11-05T14:10:10.306Z,16.39
2022-11-05T14:10:13.762Z,16.67
2022-11-05T14:10:57.454Z,16.75
2022-11-05T14:12:40.554Z,16.31
2022-11-05T14:15:31.163Z,16.25
2022-11-05T14:18:13.349Z,16.18
2022-11-05T14:21:07.072Z,16.10
2022-11-05T14:24:09.551Z,16.02
2022-11-05T14:26:43.727Z,15.96
2022-11-05T14:29:17.693Z,15.92
2022-11-05T14:32:13.828Z,15.89
2022-11-05T14:35:44.155Z,15.85
2022-11-05T14:38:29.093Z,15.81
2022-11-05T14:41:18.825Z,15.77
2022-11-05T14:50:58.479Z,15.69
2022-11-05T14:52:37.609Z,15.63
2022-11-05T15:18:57.290Z,15.29
2022-11-05T15:20:37.188Z,15.24
2022-11-05T15:34:39.755Z,15.07
2022-11-05T15:37:24.897Z,15.01
2022-11-05T15:47:03.412Z,14.89
2022-11-05T19:56:53.727Z,12.33
2022-11-05T20:16:32.800Z,12.13
2022-11-05T21:05:03.599Z,11.67
2022-11-05T21:08:57.178Z,11.67
2022-11-05T21:16:23.780Z,11.63
2022-11-05T21:19:05.819Z,11.62
2022-11-05T21:36:35.929Z,11.46
2022-11-05T21:56:55.911Z,11.18
2022-11-05T22:08:26.066Z,11.00
2022-11-05T22:12:12.623Z,10.96
2022-11-05T22:14:44.271Z,10.89
2022-11-05T22:22:40.523Z,10.77
2022-11-05T22:30:33.738Z,10.66
2022-11-05T22:33:13.652Z,10.58
2022-11-05T22:40:20.299Z,10.48
2022-11-05T23:29:16.014Z,10.04
2022-11-05T23:36:16.309Z,9.99
